sensor_id;sensor_type;location;lat;lon;timestamp;P1;durP1;ratioP1;P2;durP2;ratioP2
45366;SDS011;31100;55.848;37.636;2022-11-21T00:00:14;40.03;;;16.17;;
45366;SDS011;31100;55.848;37.636;2022-11-21T00:02:40;30.35;;;14.50;;
45366;SDS011;31100;55.848;37.636;2022-11-21T00:05:07;35.40;;;14.95;;
45366;SDS011;31100;55.848;37.636;2022-11-21T00:07:33;28.35;;;13.88;;
45366;SDS011;31100;55.848;37.636;2022-11-21T00:09:59;28.10;;;13.77;;
45366;SDS011;31100;55.848;37.636;2022-11-21T00:12:25;27.38;;;13.20;;
45366;SDS011;31100;55.848;37.636;2022-11-21T00:14:50;28.13;;;13.43;;
45366;SDS011;31100;55.848;37.636;2022-11-21T00:17:16;27.73;;;13.65;;
45366;SDS011;31100;55.848;37.636;2022-11-21T00:19:42;34.60;;;14.48;;
45366;SDS011;31100;55.848;37.636;2022-11-21T00:22:08;39.03;;;15.40;;
45366;SDS011;31100;55.848;37.636;2022-11-21T00:24:34;40.03;;;17.83;;
45366;SDS011;31100;55.848;37.636;2022-11-21T00:26:59;41.22;;;17.30;;
45366;SDS011;31100;55.848;37.636;2022-11-21T00:29:25;45.88;;;18.92;;
45366;SDS011;31100;55.848;37.636;2022-11-21T00:31:50;36.60;;;15.95;;
45366;SDS011;31100;55.848;37.636;2022-11-21T00:34:16;30.95;;;15.40;;
45366;SDS011;31100;55.848;37.636;2022-11-21T00:36:41;31.27;;;13.32;;
45366;SDS011;31100;55.848;37.636;2022-11-21T00:39:07;32.08;;;14.45;;
45366;SDS011;31100;55.848;37.636;2022-11-21T00:41:32;26.45;;;14.27;;
45366;SDS011;31100;55.848;37.636;2022-11-21T00:43:58;32.72;;;14.27;;
45366;SDS011;31100;55.848;37.636;2022-11-21T00:46:24;30.73;;;14.48;;
45366;SDS011;31100;55.848;37.636;2022-11-21T00:48:49;33.35;;;15.98;;
45366;SDS011;31100;55.848;37.636;2022-11-21T00:51:15;30.23;;;14.57;;
45366;SDS011;31100;55.848;37.636;2022-11-21T00:53:40;32.53;;;14.60;;
45366;SDS011;31100;55.848;37.636;2022-11-21T00:56:06;29.50;;;14.05;;
45366;SDS011;31100;55.848;37.636;2022-11-21T00:58:32;32.03;;;13.93;;
45366;SDS011;31100;55.848;37.636;2022-11-21T01:01:04;30.83;;;15.13;;
45366;SDS011;31100;55.848;37.636;2022-11-21T01:03:32;31.80;;;15.15;;
45366;SDS011;31100;55.848;37.636;2022-11-21T01:06:02;35.60;;;16.15;;
45366;SDS011;31100;55.848;37.636;2022-11-21T01:08:29;33.58;;;15.00;;
45366;SDS011;31100;55.848;37.636;2022-11-21T01:10:54;34.15;;;15.18;;
45366;SDS011;31100;55.848;37.636;2022-11-21T01:13:20;32.70;;;16.15;;
45366;SDS011;31100;55.848;37.636;2022-11-21T01:15:45;34.78;;;14.48;;
45366;SDS011;31100;55.848;37.636;2022-11-21T01:18:11;36.40;;;16.13;;
45366;SDS011;31100;55.848;37.636;2022-11-21T01:20:39;31.42;;;14.30;;
45366;SDS011;31100;55.848;37.636;2022-11-21T01:23:05;31.13;;;14.52;;
45366;SDS011;31100;55.848;37.636;2022-11-21T01:25:34;30.85;;;15.07;;
45366;SDS011;31100;55.848;37.636;2022-11-21T01:27:59;30.20;;;14.30;;
45366;SDS011;31100;55.848;37.636;2022-11-21T01:30:25;30.02;;;14.00;;
45366;SDS011;31100;55.848;37.636;2022-11-21T01:32:50;30.35;;;14.57;;
45366;SDS011;31100;55.848;37.636;2022-11-21T01:35:16;30.65;;;15.00;;
45366;SDS011;31100;55.848;37.636;2022-11-21T01:37:45;34.78;;;14.95;;
45366;SDS011;31100;55.848;37.636;2022-11-21T01:40:11;29.75;;;14.60;;
45366;SDS011;31100;55.848;37.636;2022-11-21T01:48:26;28.83;;;14.38;;
45366;SDS011;31100;55.848;37.636;2022-11-21T01:50:59;32.20;;;14.93;;
45366;SDS011;31100;55.848;37.636;2022-11-21T01:53:29;33.97;;;14.57;;
45366;SDS011;31100;55.848;37.636;2022-11-21T01:55:55;31.85;;;15.25;;
45366;SDS011;31100;55.848;37.636;2022-11-21T01:58:20;28.60;;;14.65;;
45366;SDS011;31100;55.848;37.636;2022-11-21T02:00:47;31.80;;;16.23;;
45366;SDS011;31100;55.848;37.636;2022-11-21T02:03:14;32.40;;;14.75;;
45366;SDS011;31100;55.848;37.636;2022-11-21T02:05:42;30.48;;;14.73;;
45366;SDS011;31100;55.848;37.636;2022-11-21T02:08:11;31.67;;;14.77;;
45366;SDS011;31100;55.848;37.636;2022-11-21T02:10:40;30.15;;;13.98;;
45366;SDS011;31100;55.848;37.636;2022-11-21T02:13:12;36.30;;;15.20;;
45366;SDS011;31100;55.848;37.636;2022-11-21T02:15:37;33.13;;;15.05;;
45366;SDS011;31100;55.848;37.636;2022-11-21T02:18:04;29.95;;;14.25;;
45366;SDS011;31100;55.848;37.636;2022-11-21T02:20:33;31.70;;;15.00;;
45366;SDS011;31100;55.848;37.636;2022-11-21T02:23:05;34.83;;;16.10;;
45366;SDS011;31100;55.848;37.636;2022-11-21T02:25:35;34.72;;;15.35;;
45366;SDS011;31100;55.848;37.636;2022-11-21T02:28:03;26.83;;;13.27;;
45366;SDS011;31100;55.848;37.636;2022-11-21T02:30:35;31.05;;;14.23;;
45366;SDS011;31100;55.848;37.636;2022-11-21T02:33:02;33.05;;;15.60;;
45366;SDS011;31100;55.848;37.636;2022-11-21T02:35:27;34.30;;;15.40;;
45366;SDS011;31100;55.848;37.636;2022-11-21T02:38:35;31.55;;;16.02;;
45366;SDS011;31100;55.848;37.636;2022-11-21T02:41:26;33.60;;;15.45;;
45366;SDS011;31100;55.848;37.636;2022-11-21T02:43:54;35.72;;;16.38;;
45366;SDS011;31100;55.848;37.636;2022-11-21T02:46:24;35.03;;;14.27;;
45366;SDS011;31100;55.848;37.636;2022-11-21T02:48:51;26.92;;;14.02;;
45366;SDS011;31100;55.848;37.636;2022-11-21T02:51:17;32.88;;;14.90;;
45366;SDS011;31100;55.848;37.636;2022-11-21T02:53:42;33.80;;;14.73;;
45366;SDS011;31100;55.848;37.636;2022-11-21T02:56:08;25.83;;;12.75;;
45366;SDS011;31100;55.848;37.636;2022-11-21T02:58:33;26.23;;;13.95;;
45366;SDS011;31100;55.848;37.636;2022-11-21T03:00:59;25.83;;;12.93;;
45366;SDS011;31100;55.848;37.636;2022-11-21T03:03:24;28.77;;;13.38;;
45366;SDS011;31100;55.848;37.636;2022-11-21T03:05:50;28.13;;;13.68;;
45366;SDS011;31100;55.848;37.636;2022-11-21T03:08:15;24.10;;;11.55;;
45366;SDS011;31100;55.848;37.636;2022-11-21T03:10:41;24.23;;;12.15;;
45366;SDS011;31100;55.848;37.636;2022-11-21T03:13:07;22.58;;;10.65;;
45366;SDS011;31100;55.848;37.636;2022-11-21T03:15:33;15.07;;;8.50;;
45366;SDS011;31100;55.848;37.636;2022-11-21T03:17:59;26.90;;;11.93;;
45366;SDS011;31100;55.848;37.636;2022-11-21T03:20:27;23.30;;;11.70;;
45366;SDS011;31100;55.848;37.636;2022-11-21T03:22:56;26.70;;;13.00;;
45366;SDS011;31100;55.848;37.636;2022-11-21T03:25:21;23.08;;;11.93;;
45366;SDS011;31100;55.848;37.636;2022-11-21T03:27:50;21.98;;;11.85;;
45366;SDS011;31100;55.848;37.636;2022-11-21T03:30:17;26.30;;;14.52;;
45366;SDS011;31100;55.848;37.636;2022-11-21T03:32:44;23.08;;;11.60;;
45366;SDS011;31100;55.848;37.636;2022-11-21T03:35:10;24.80;;;10.88;;
45366;SDS011;31100;55.848;37.636;2022-11-21T03:37:35;22.85;;;12.10;;
45366;SDS011;31100;55.848;37.636;2022-11-21T03:40:01;22.17;;;11.75;;
45366;SDS011;31100;55.848;37.636;2022-11-21T03:42:26;25.83;;;12.38;;
45366;SDS011;31100;55.848;37.636;2022-11-21T03:44:52;22.80;;;11.57;;
45366;SDS011;31100;55.848;37.636;2022-11-21T03:47:17;23.58;;;12.73;;
45366;SDS011;31100;55.848;37.636;2022-11-21T03:49:43;24.83;;;12.80;;
45366;SDS011;31100;55.848;37.636;2022-11-21T03:52:09;28.25;;;13.02;;
45366;SDS011;31100;55.848;37.636;2022-11-21T03:54:34;24.88;;;12.82;;
45366;SDS011;31100;55.848;37.636;2022-11-21T03:57:00;21.98;;;11.07;;
45366;SDS011;31100;55.848;37.636;2022-11-21T03:59:25;26.13;;;11.55;;
45366;SDS011;31100;55.848;37.636;2022-11-21T04:01:50;24.90;;;12.35;;
45366;SDS011;31100;55.848;37.636;2022-11-21T04:04:16;24.75;;;12.25;;
45366;SDS011;31100;55.848;37.636;2022-11-21T04:06:42;25.48;;;12.10;;
45366;SDS011;31100;55.848;37.636;2022-11-21T04:09:07;22.88;;;11.73;;
45366;SDS011;31100;55.848;37.636;2022-11-21T04:11:33;26.10;;;13.60;;
45366;SDS011;31100;55.848;37.636;2022-11-21T04:13:58;23.73;;;12.13;;
45366;SDS011;31100;55.848;37.636;2022-11-21T04:16:24;25.95;;;12.52;;
45366;SDS011;31100;55.848;37.636;2022-11-21T04:18:49;23.83;;;11.38;;
45366;SDS011;31100;55.848;37.636;2022-11-21T04:21:15;23.60;;;12.05;;
45366;SDS011;31100;55.848;37.636;2022-11-21T04:23:41;24.17;;;11.07;;
45366;SDS011;31100;55.848;37.636;2022-11-21T04:26:06;21.83;;;11.05;;
45366;SDS011;31100;55.848;37.636;2022-11-21T04:28:32;22.63;;;11.43;;
45366;SDS011;31100;55.848;37.636;2022-11-21T04:31:04;22.20;;;11.35;;
45366;SDS011;31100;55.848;37.636;2022-11-21T04:33:30;21.83;;;11.55;;
45366;SDS011;31100;55.848;37.636;2022-11-21T04:35:56;22.45;;;11.02;;
45366;SDS011;31100;55.848;37.636;2022-11-21T04:38:21;23.55;;;10.55;;
45366;SDS011;31100;55.848;37.636;2022-11-21T04:40:47;20.58;;;10.27;;
45366;SDS011;31100;55.848;37.636;2022-11-21T04:43:12;21.60;;;9.90;;
45366;SDS011;31100;55.848;37.636;2022-11-21T04:45:38;22.50;;;11.15;;
45366;SDS011;31100;55.848;37.636;2022-11-21T04:48:03;22.15;;;11.15;;
45366;SDS011;31100;55.848;37.636;2022-11-21T04:50:29;21.08;;;10.60;;
45366;SDS011;31100;55.848;37.636;2022-11-21T04:52:55;21.05;;;10.82;;
45366;SDS011;31100;55.848;37.636;2022-11-21T04:55:22;19.20;;;10.40;;
45366;SDS011;31100;55.848;37.636;2022-11-21T04:57:48;22.20;;;11.10;;
45366;SDS011;31100;55.848;37.636;2022-11-21T05:00:14;21.52;;;11.07;;
45366;SDS011;31100;55.848;37.636;2022-11-21T05:02:40;25.17;;;12.45;;
45366;SDS011;31100;55.848;37.636;2022-11-21T05:05:06;22.05;;;10.90;;
45366;SDS011;31100;55.848;37.636;2022-11-21T05:07:32;19.00;;;9.38;;
45366;SDS011;31100;55.848;37.636;2022-11-21T05:09:58;24.20;;;10.52;;
45366;SDS011;31100;55.848;37.636;2022-11-21T05:12:26;22.38;;;11.43;;
45366;SDS011;31100;55.848;37.636;2022-11-21T05:15:11;24.23;;;10.98;;
45366;SDS011;31100;55.848;37.636;2022-11-21T05:17:36;23.52;;;11.02;;
45366;SDS011;31100;55.848;37.636;2022-11-21T05:20:02;21.30;;;10.48;;
45366;SDS011;31100;55.848;37.636;2022-11-21T05:22:29;21.20;;;10.40;;
45366;SDS011;31100;55.848;37.636;2022-11-21T05:24:55;19.92;;;10.65;;
45366;SDS011;31100;55.848;37.636;2022-11-21T05:27:20;24.40;;;11.00;;
45366;SDS011;31100;55.848;37.636;2022-11-21T05:29:46;21.52;;;10.57;;
45366;SDS011;31100;55.848;37.636;2022-11-21T05:32:12;20.80;;;10.55;;
45366;SDS011;31100;55.848;37.636;2022-11-21T05:34:37;20.98;;;10.55;;
45366;SDS011;31100;55.848;37.636;2022-11-21T05:37:03;25.17;;;10.90;;
45366;SDS011;31100;55.848;37.636;2022-11-21T05:39:28;23.38;;;11.05;;
45366;SDS011;31100;55.848;37.636;2022-11-21T05:41:54;24.13;;;12.27;;
45366;SDS011;31100;55.848;37.636;2022-11-21T05:44:20;21.05;;;11.25;;
45366;SDS011;31100;55.848;37.636;2022-11-21T05:46:45;21.85;;;10.95;;
45366;SDS011;31100;55.848;37.636;2022-11-21T05:49:11;25.00;;;11.77;;
45366;SDS011;31100;55.848;37.636;2022-11-21T05:51:37;24.00;;;11.45;;
45366;SDS011;31100;55.848;37.636;2022-11-21T05:54:03;21.48;;;11.48;;
45366;SDS011;31100;55.848;37.636;2022-11-21T05:56:28;25.73;;;11.60;;
45366;SDS011;31100;55.848;37.636;2022-11-21T05:58:55;27.92;;;13.93;;
45366;SDS011;31100;55.848;37.636;2022-11-21T06:01:21;24.27;;;10.70;;
45366;SDS011;31100;55.848;37.636;2022-11-21T06:04:06;20.67;;;10.45;;
45366;SDS011;31100;55.848;37.636;2022-11-21T06:06:32;25.15;;;10.73;;
45366;SDS011;31100;55.848;37.636;2022-11-21T06:09:01;24.13;;;11.80;;
45366;SDS011;31100;55.848;37.636;2022-11-21T06:11:27;25.42;;;11.40;;
45366;SDS011;31100;55.848;37.636;2022-11-21T06:13:53;23.80;;;11.52;;
45366;SDS011;31100;55.848;37.636;2022-11-21T06:16:19;22.98;;;11.32;;
45366;SDS011;31100;55.848;37.636;2022-11-21T06:18:48;22.55;;;11.07;;
45366;SDS011;31100;55.848;37.636;2022-11-21T06:21:21;17.77;;;9.40;;
45366;SDS011;31100;55.848;37.636;2022-11-21T06:23:52;25.10;;;11.25;;
45366;SDS011;31100;55.848;37.636;2022-11-21T06:26:20;25.00;;;12.02;;
45366;SDS011;31100;55.848;37.636;2022-11-21T06:28:47;26.05;;;11.20;;
45366;SDS011;31100;55.848;37.636;2022-11-21T06:33:45;23.08;;;12.68;;
45366;SDS011;31100;55.848;37.636;2022-11-21T06:36:12;25.15;;;12.30;;
45366;SDS011;31100;55.848;37.636;2022-11-21T06:38:39;24.80;;;10.85;;
45366;SDS011;31100;55.848;37.636;2022-11-21T06:43:38;25.13;;;12.13;;
45366;SDS011;31100;55.848;37.636;2022-11-21T06:46:04;22.08;;;11.38;;
45366;SDS011;31100;55.848;37.636;2022-11-21T06:48:30;22.08;;;11.05;;
45366;SDS011;31100;55.848;37.636;2022-11-21T06:50:56;24.42;;;11.65;;
45366;SDS011;31100;55.848;37.636;2022-11-21T06:53:22;25.27;;;13.02;;
45366;SDS011;31100;55.848;37.636;2022-11-21T06:55:48;25.58;;;11.90;;
45366;SDS011;31100;55.848;37.636;2022-11-21T06:58:13;22.27;;;10.80;;
45366;SDS011;31100;55.848;37.636;2022-11-21T07:00:39;26.52;;;12.50;;
45366;SDS011;31100;55.848;37.636;2022-11-21T07:03:04;24.73;;;12.07;;
45366;SDS011;31100;55.848;37.636;2022-11-21T07:05:30;24.48;;;12.07;;
45366;SDS011;31100;55.848;37.636;2022-11-21T07:07:59;20.50;;;10.80;;
45366;SDS011;31100;55.848;37.636;2022-11-21T07:10:25;26.38;;;12.48;;
45366;SDS011;31100;55.848;37.636;2022-11-21T07:12:55;23.42;;;11.48;;
45366;SDS011;31100;55.848;37.636;2022-11-21T07:15:40;24.67;;;12.48;;
45366;SDS011;31100;55.848;37.636;2022-11-21T07:18:05;22.63;;;11.55;;
45366;SDS011;31100;55.848;37.636;2022-11-21T07:20:31;25.85;;;12.15;;
45366;SDS011;31100;55.848;37.636;2022-11-21T07:22:56;24.48;;;10.52;;
45366;SDS011;31100;55.848;37.636;2022-11-21T07:25:22;25.02;;;11.32;;
45366;SDS011;31100;55.848;37.636;2022-11-21T07:27:47;25.08;;;11.18;;
45366;SDS011;31100;55.848;37.636;2022-11-21T07:30:13;19.70;;;11.07;;
45366;SDS011;31100;55.848;37.636;2022-11-21T07:32:39;21.58;;;10.93;;
45366;SDS011;31100;55.848;37.636;2022-11-21T07:35:04;24.52;;;11.48;;
45366;SDS011;31100;55.848;37.636;2022-11-21T07:37:31;21.30;;;10.32;;
45366;SDS011;31100;55.848;37.636;2022-11-21T07:39:56;25.80;;;12.10;;
45366;SDS011;31100;55.848;37.636;2022-11-21T07:42:22;22.95;;;11.70;;
45366;SDS011;31100;55.848;37.636;2022-11-21T07:44:47;22.70;;;11.38;;
45366;SDS011;31100;55.848;37.636;2022-11-21T07:47:13;22.75;;;10.98;;
45366;SDS011;31100;55.848;37.636;2022-11-21T07:49:38;21.60;;;11.20;;
45366;SDS011;31100;55.848;37.636;2022-11-21T07:52:04;20.40;;;11.02;;
45366;SDS011;31100;55.848;37.636;2022-11-21T07:54:30;22.60;;;11.90;;
45366;SDS011;31100;55.848;37.636;2022-11-21T07:56:55;21.13;;;11.30;;
45366;SDS011;31100;55.848;37.636;2022-11-21T07:59:21;23.90;;;11.38;;
45366;SDS011;31100;55.848;37.636;2022-11-21T08:01:46;23.80;;;11.60;;
45366;SDS011;31100;55.848;37.636;2022-11-21T08:04:12;22.80;;;11.18;;
45366;SDS011;31100;55.848;37.636;2022-11-21T08:06:38;21.95;;;10.75;;
45366;SDS011;31100;55.848;37.636;2022-11-21T08:09:03;21.98;;;11.23;;
45366;SDS011;31100;55.848;37.636;2022-11-21T08:11:29;22.02;;;11.13;;
45366;SDS011;31100;55.848;37.636;2022-11-21T08:13:57;21.75;;;11.50;;
45366;SDS011;31100;55.848;37.636;2022-11-21T08:16:23;19.45;;;11.13;;
45366;SDS011;31100;55.848;37.636;2022-11-21T08:18:52;20.20;;;10.25;;
45366;SDS011;31100;55.848;37.636;2022-11-21T08:21:18;20.77;;;10.45;;
45366;SDS011;31100;55.848;37.636;2022-11-21T08:23:43;18.75;;;10.02;;
45366;SDS011;31100;55.848;37.636;2022-11-21T08:26:09;16.17;;;8.73;;
45366;SDS011;31100;55.848;37.636;2022-11-21T08:28:35;15.52;;;8.40;;
45366;SDS011;31100;55.848;37.636;2022-11-21T08:31:04;14.55;;;7.85;;
45366;SDS011;31100;55.848;37.636;2022-11-21T08:33:31;13.43;;;7.68;;
45366;SDS011;31100;55.848;37.636;2022-11-21T08:35:57;16.73;;;8.93;;
45366;SDS011;31100;55.848;37.636;2022-11-21T08:38:22;15.93;;;8.23;;
45366;SDS011;31100;55.848;37.636;2022-11-21T08:40:48;19.52;;;9.27;;
45366;SDS011;31100;55.848;37.636;2022-11-21T08:43:36;15.20;;;8.00;;
45366;SDS011;31100;55.848;37.636;2022-11-21T08:46:02;18.00;;;8.15;;
45366;SDS011;31100;55.848;37.636;2022-11-21T08:48:27;14.18;;;8.27;;
45366;SDS011;31100;55.848;37.636;2022-11-21T08:50:55;13.57;;;7.97;;
45366;SDS011;31100;55.848;37.636;2022-11-21T08:53:21;15.10;;;8.75;;
45366;SDS011;31100;55.848;37.636;2022-11-21T08:55:46;15.60;;;8.02;;
45366;SDS011;31100;55.848;37.636;2022-11-21T08:58:12;14.70;;;7.90;;
45366;SDS011;31100;55.848;37.636;2022-11-21T09:00:38;19.30;;;9.48;;
45366;SDS011;31100;55.848;37.636;2022-11-21T09:03:04;18.55;;;9.18;;
45366;SDS011;31100;55.848;37.636;2022-11-21T09:05:30;15.50;;;8.63;;
45366;SDS011;31100;55.848;37.636;2022-11-21T09:07:56;17.67;;;9.00;;
45366;SDS011;31100;55.848;37.636;2022-11-21T09:10:23;14.88;;;8.23;;
45366;SDS011;31100;55.848;37.636;2022-11-21T09:12:49;16.77;;;9.27;;
45366;SDS011;31100;55.848;37.636;2022-11-21T09:15:15;20.40;;;9.05;;
45366;SDS011;31100;55.848;37.636;2022-11-21T09:17:59;16.05;;;8.65;;
45366;SDS011;31100;55.848;37.636;2022-11-21T09:20:29;18.60;;;9.55;;
45366;SDS011;31100;55.848;37.636;2022-11-21T09:22:55;17.58;;;8.93;;
45366;SDS011;31100;55.848;37.636;2022-11-21T09:25:21;15.57;;;8.45;;
45366;SDS011;31100;55.848;37.636;2022-11-21T09:27:47;16.73;;;9.02;;
45366;SDS011;31100;55.848;37.636;2022-11-21T09:30:12;15.15;;;9.02;;
45366;SDS011;31100;55.848;37.636;2022-11-21T09:32:40;16.30;;;9.35;;
45366;SDS011;31100;55.848;37.636;2022-11-21T09:35:06;16.55;;;8.52;;
45366;SDS011;31100;55.848;37.636;2022-11-21T09:37:36;18.10;;;9.23;;
45366;SDS011;31100;55.848;37.636;2022-11-21T09:40:12;19.50;;;9.32;;
45366;SDS011;31100;55.848;37.636;2022-11-21T09:42:46;16.35;;;8.75;;
45366;SDS011;31100;55.848;37.636;2022-11-21T09:45:34;15.80;;;9.35;;
45366;SDS011;31100;55.848;37.636;2022-11-21T09:48:02;20.77;;;10.98;;
45366;SDS011;31100;55.848;37.636;2022-11-21T09:50:34;17.85;;;10.02;;
45366;SDS011;31100;55.848;37.636;2022-11-21T09:53:04;16.65;;;9.23;;
45366;SDS011;31100;55.848;37.636;2022-11-21T09:57:59;15.55;;;9.25;;
45366;SDS011;31100;55.848;37.636;2022-11-21T10:00:27;16.65;;;9.40;;
45366;SDS011;31100;55.848;37.636;2022-11-21T10:02:53;15.23;;;8.73;;
45366;SDS011;31100;55.848;37.636;2022-11-21T10:05:22;18.08;;;9.50;;
45366;SDS011;31100;55.848;37.636;2022-11-21T10:07:55;14.77;;;9.00;;
45366;SDS011;31100;55.848;37.636;2022-11-21T10:12:55;14.93;;;8.68;;
45366;SDS011;31100;55.848;37.636;2022-11-21T10:19:03;16.80;;;9.50;;
45366;SDS011;31100;55.848;37.636;2022-11-21T10:27:39;17.42;;;9.38;;
45366;SDS011;31100;55.848;37.636;2022-11-21T10:32:42;17.10;;;9.63;;
45366;SDS011;31100;55.848;37.636;2022-11-21T10:37:52;15.32;;;9.27;;
45366;SDS011;31100;55.848;37.636;2022-11-21T10:40:33;16.15;;;8.95;;
45366;SDS011;31100;55.848;37.636;2022-11-21T10:45:57;16.33;;;8.85;;
45366;SDS011;31100;55.848;37.636;2022-11-21T10:48:22;17.38;;;9.35;;
45366;SDS011;31100;55.848;37.636;2022-11-21T10:53:32;17.83;;;9.82;;
45366;SDS011;31100;55.848;37.636;2022-11-21T10:56:16;17.63;;;10.30;;
45366;SDS011;31100;55.848;37.636;2022-11-21T10:58:44;17.65;;;9.63;;
45366;SDS011;31100;55.848;37.636;2022-11-21T11:01:22;17.35;;;10.02;;
45366;SDS011;31100;55.848;37.636;2022-11-21T11:06:39;15.32;;;9.30;;
45366;SDS011;31100;55.848;37.636;2022-11-21T11:09:24;15.65;;;9.05;;
45366;SDS011;31100;55.848;37.636;2022-11-21T11:11:52;14.95;;;8.98;;
45366;SDS011;31100;55.848;37.636;2022-11-21T11:14:26;14.90;;;9.52;;
45366;SDS011;31100;55.848;37.636;2022-11-21T11:16:54;15.15;;;9.77;;
45366;SDS011;31100;55.848;37.636;2022-11-21T11:19:23;18.58;;;9.52;;
45366;SDS011;31100;55.848;37.636;2022-11-21T11:21:51;16.15;;;10.23;;
45366;SDS011;31100;55.848;37.636;2022-11-21T11:29:20;15.35;;;8.32;;
45366;SDS011;31100;55.848;37.636;2022-11-21T11:31:58;15.93;;;10.10;;
45366;SDS011;31100;55.848;37.636;2022-11-21T11:34:26;16.80;;;10.65;;
45366;SDS011;31100;55.848;37.636;2022-11-21T11:37:11;17.20;;;8.73;;
45366;SDS011;31100;55.848;37.636;2022-11-21T11:48:41;14.23;;;7.72;;
45366;SDS011;31100;55.848;37.636;2022-11-21T11:54:10;11.52;;;7.35;;
45366;SDS011;31100;55.848;37.636;2022-11-21T11:56:44;13.82;;;8.55;;
45366;SDS011;31100;55.848;37.636;2022-11-21T11:59:21;14.02;;;8.52;;
45366;SDS011;31100;55.848;37.636;2022-11-21T12:02:00;14.07;;;7.78;;
45366;SDS011;31100;55.848;37.636;2022-11-21T12:04:31;13.18;;;7.88;;
45366;SDS011;31100;55.848;37.636;2022-11-21T12:07:04;15.25;;;8.73;;
45366;SDS011;31100;55.848;37.636;2022-11-21T12:12:27;16.00;;;9.75;;
45366;SDS011;31100;55.848;37.636;2022-11-21T12:23:31;13.38;;;8.02;;
45366;SDS011;31100;55.848;37.636;2022-11-21T12:26:04;12.90;;;7.63;;
45366;SDS011;31100;55.848;37.636;2022-11-21T12:36:43;13.73;;;8.95;;
45366;SDS011;31100;55.848;37.636;2022-11-21T12:57:08;14.57;;;8.45;;
45366;SDS011;31100;55.848;37.636;2022-11-21T12:59:42;14.52;;;8.98;;
45366;SDS011;31100;55.848;37.636;2022-11-21T13:02:33;13.63;;;8.95;;
45366;SDS011;31100;55.848;37.636;2022-11-21T13:05:03;17.88;;;8.90;;
45366;SDS011;31100;55.848;37.636;2022-11-21T13:07:30;14.35;;;8.75;;
45366;SDS011;31100;55.848;37.636;2022-11-21T13:09:57;14.70;;;9.07;;
45366;SDS011;31100;55.848;37.636;2022-11-21T13:17:56;14.10;;;8.60;;
45366;SDS011;31100;55.848;37.636;2022-11-21T13:20:29;14.65;;;9.00;;
45366;SDS011;31100;55.848;37.636;2022-11-21T13:22:58;16.42;;;9.45;;
45366;SDS011;31100;55.848;37.636;2022-11-21T13:30:53;19.38;;;9.65;;
45366;SDS011;31100;55.848;37.636;2022-11-21T13:36:03;17.20;;;9.68;;
45366;SDS011;31100;55.848;37.636;2022-11-21T13:38:31;16.23;;;8.60;;
45366;SDS011;31100;55.848;37.636;2022-11-21T13:40:59;15.65;;;9.07;;
45366;SDS011;31100;55.848;37.636;2022-11-21T13:43:43;17.33;;;9.52;;
45366;SDS011;31100;55.848;37.636;2022-11-21T13:46:09;18.08;;;8.88;;
45366;SDS011;31100;55.848;37.636;2022-11-21T14:08:13;13.75;;;9.27;;
45366;SDS011;31100;55.848;37.636;2022-11-21T14:10:42;13.57;;;8.93;;
45366;SDS011;31100;55.848;37.636;2022-11-21T14:13:16;16.63;;;9.82;;
45366;SDS011;31100;55.848;37.636;2022-11-21T14:15:59;18.20;;;10.93;;
45366;SDS011;31100;55.848;37.636;2022-11-21T14:18:43;16.38;;;9.35;;
45366;SDS011;31100;55.848;37.636;2022-11-21T14:24:12;19.10;;;10.65;;
45366;SDS011;31100;55.848;37.636;2022-11-21T14:26:42;19.53;;;11.40;;
45366;SDS011;31100;55.848;37.636;2022-11-21T14:29:24;17.20;;;9.57;;
45366;SDS011;31100;55.848;37.636;2022-11-21T14:31:51;16.90;;;10.02;;
45366;SDS011;31100;55.848;37.636;2022-11-21T14:34:27;20.38;;;11.32;;
45366;SDS011;31100;55.848;37.636;2022-11-21T14:36:54;16.95;;;9.90;;
45366;SDS011;31100;55.848;37.636;2022-11-21T14:39:23;16.88;;;9.55;;
45366;SDS011;31100;55.848;37.636;2022-11-21T14:41:56;18.58;;;9.88;;
45366;SDS011;31100;55.848;37.636;2022-11-21T14:44:24;16.92;;;9.80;;
45366;SDS011;31100;55.848;37.636;2022-11-21T14:46:50;15.02;;;9.70;;
45366;SDS011;31100;55.848;37.636;2022-11-21T14:49:27;15.88;;;10.00;;
45366;SDS011;31100;55.848;37.636;2022-11-21T14:59:52;16.35;;;9.52;;
45366;SDS011;31100;55.848;37.636;2022-11-21T15:02:23;15.75;;;9.23;;
45366;SDS011;31100;55.848;37.636;2022-11-21T15:04:51;15.60;;;8.90;;
45366;SDS011;31100;55.848;37.636;2022-11-21T15:07:20;15.50;;;9.95;;
45366;SDS011;31100;55.848;37.636;2022-11-21T15:09:47;15.45;;;8.95;;
45366;SDS011;31100;55.848;37.636;2022-11-21T15:12:17;18.77;;;10.07;;
45366;SDS011;31100;55.848;37.636;2022-11-21T15:14:56;15.75;;;8.93;;
45366;SDS011;31100;55.848;37.636;2022-11-21T15:17:29;18.00;;;10.40;;
45366;SDS011;31100;55.848;37.636;2022-11-21T15:22:35;15.90;;;10.00;;
45366;SDS011;31100;55.848;37.636;2022-11-21T15:25:13;15.02;;;9.18;;
45366;SDS011;31100;55.848;37.636;2022-11-21T15:27:40;11.70;;;6.82;;
45366;SDS011;31100;55.848;37.636;2022-11-21T15:38:30;15.00;;;8.90;;
45366;SDS011;31100;55.848;37.636;2022-11-21T15:43:43;15.82;;;9.20;;
45366;SDS011;31100;55.848;37.636;2022-11-21T15:46:20;20.00;;;10.82;;
45366;SDS011;31100;55.848;37.636;2022-11-21T15:51:23;18.33;;;10.15;;
45366;SDS011;31100;55.848;37.636;2022-11-21T15:53:50;17.52;;;10.30;;
45366;SDS011;31100;55.848;37.636;2022-11-21T15:56:19;18.92;;;10.85;;
45366;SDS011;31100;55.848;37.636;2022-11-21T15:58:46;17.05;;;9.95;;
45366;SDS011;31100;55.848;37.636;2022-11-21T16:01:13;17.17;;;10.30;;
45366;SDS011;31100;55.848;37.636;2022-11-21T16:03:43;18.52;;;9.95;;
45366;SDS011;31100;55.848;37.636;2022-11-21T16:06:09;17.10;;;10.77;;
45366;SDS011;31100;55.848;37.636;2022-11-21T16:08:37;16.60;;;10.05;;
45366;SDS011;31100;55.848;37.636;2022-11-21T16:11:02;19.25;;;11.60;;
45366;SDS011;31100;55.848;37.636;2022-11-21T16:13:28;17.52;;;9.23;;
45366;SDS011;31100;55.848;37.636;2022-11-21T16:15:54;15.75;;;9.38;;
45366;SDS011;31100;55.848;37.636;2022-11-21T16:18:19;16.13;;;9.43;;
45366;SDS011;31100;55.848;37.636;2022-11-21T16:20:48;16.65;;;10.55;;
45366;SDS011;31100;55.848;37.636;2022-11-21T16:23:13;16.30;;;8.70;;
45366;SDS011;31100;55.848;37.636;2022-11-21T16:25:53;17.52;;;10.20;;
45366;SDS011;31100;55.848;37.636;2022-11-21T16:28:19;16.17;;;9.27;;
45366;SDS011;31100;55.848;37.636;2022-11-21T16:30:44;18.55;;;10.30;;
45366;SDS011;31100;55.848;37.636;2022-11-21T16:33:10;17.55;;;9.80;;
45366;SDS011;31100;55.848;37.636;2022-11-21T16:35:39;17.08;;;10.23;;
45366;SDS011;31100;55.848;37.636;2022-11-21T16:38:08;17.42;;;10.80;;
45366;SDS011;31100;55.848;37.636;2022-11-21T16:40:34;16.00;;;8.88;;
45366;SDS011;31100;55.848;37.636;2022-11-21T16:43:07;19.38;;;10.27;;
45366;SDS011;31100;55.848;37.636;2022-11-21T16:45:34;17.38;;;9.85;;
45366;SDS011;31100;55.848;37.636;2022-11-21T16:48:00;17.13;;;10.52;;
45366;SDS011;31100;55.848;37.636;2022-11-21T16:50:25;15.93;;;9.45;;
45366;SDS011;31100;55.848;37.636;2022-11-21T16:52:51;15.32;;;9.02;;